Time;durP1;ratioP1;P1;durP2;ratioP2;P2;SDS_P1;SDS_P2;PMS_P1;PMS_P2;Temp;Humidity;BMP_temperature;BMP_pressure;BME280_temperature;BME280_humidity;BME280_pressure;Samples;Min_cycle;Max_cycle;Signal;HPM_P1;HPM_P2
2022/09/24 00:00:04;;;;;;;;;;;;;;;12.42;65.27;99917.13;349414;28;1871;-77
2022/09/24 00:00:14;;;;;;;;;;;;;;;12.44;65.21;99910.03;349826;28;1316;-77
2022/09/24 00:00:26;;;;;;;;;;;;;;;12.44;65.34;99912.66;352110;28;875;-76
2022/09/24 00:00:36;;;;;;;;;;;;;;;12.42;65.04;99914.50;349295;28;1368;-76
2022/09/24 00:00:50;;;;;;;;;;;;;;;12.44;65.13;99918.78;350738;28;833;-76
2022/09/24 00:01:07;;;;;;;;;;;;;;;12.45;65.31;99919.63;350782;28;765;-76
2022/09/24 00:01:18;;;;;;;;;;;;;;;12.46;65.39;99921.34;346700;28;1936;-76
2022/09/24 00:01:30;;;;;;;;;;;;;;;12.46;65.36;99916.09;347715;28;1251;-76
2022/09/24 00:01:40;;;;;;;;;;;;;;;12.46;65.25;99918.72;349750;28;1347;-76
2022/09/24 00:01:50;;;;;;;;;;;;;;;12.45;65.30;99914.38;351954;28;1318;-76
2022/09/24 00:02:00;;;;;;;;;;;;;;;12.46;65.44;99916.09;350630;28;1324;-78
2022/09/24 00:02:11;;;;;;;;;;;;;;;12.46;65.28;99916.09;350436;28;1680;-78
2022/09/24 00:02:21;;;;;;;;;;;;;;;12.45;65.56;99915.22;349216;28;1442;-77
2022/09/24 00:02:31;;;;;;;;;;;;;;;12.46;65.28;99916.09;349133;28;1208;-77
2022/09/24 00:02:41;;;;;;;;;;;;;;;12.45;65.28;99917.00;350607;28;1373;-77
2022/09/24 00:02:51;;;;;;;;;;;;;;;12.45;65.33;99914.38;350344;28;1282;-77
2022/09/24 00:03:02;;;;;;;;;;;;;;;12.46;65.33;99916.09;347799;28;1202;-77
2022/09/24 00:03:12;;;;;;;;;;;;;;;12.44;65.17;99917.91;350592;28;758;-77
2022/09/24 00:03:23;;;;;;;;;;;;;;;12.46;65.10;99922.19;348785;28;1052;-77
2022/09/24 00:03:34;;;;;;;;;;;;;;;12.46;65.25;99918.72;348134;28;3351;-77
2022/09/24 00:03:49;;;;;;;;;;;;;;;12.46;65.35;99921.34;348740;28;3042;-77
2022/09/24 00:04:00;;;;;;;;;;;;;;;12.45;65.17;99909.97;350431;28;1357;-77
2022/09/24 00:04:10;;;;;;;;;;;;;;;12.46;65.04;99916.09;349439;28;2792;-77
2022/09/24 00:04:23;;;;;;;;;;;;;;;12.45;65.07;99914.38;350517;28;804;-77
2022/09/24 00:04:34;;;;;;;;;;;;;;;12.43;65.02;99921.47;352007;28;1277;-77
2022/09/24 00:04:44;;;;;;;;;;;;;;;12.41;64.89;99923.31;349147;28;1357;-77
2022/09/24 00:04:55;;;;;;;;;;;;;;;12.39;64.75;99914.63;349161;28;1257;-76
2022/09/24 00:05:05;;;;;;;;;;;;;;;12.39;64.82;99919.88;347744;28;1843;-76
2022/09/24 00:05:15;;;;;;;;;;;;;;;12.37;64.88;99917.31;344844;28;1238;-76
2022/09/24 00:05:26;;;;;;;;;;;;;;;12.38;65.11;99918.19;345710;28;1308;-76
2022/09/24 00:05:39;;;;;;;;;;;;;;;12.37;64.96;99917.31;345057;28;1335;-76
2022/09/24 00:05:50;;;;;;;;;;;;;;;12.39;65.22;99919.88;346559;28;796;-76
2022/09/24 00:06:01;;;;;;;;;;;;;;;12.38;65.06;99919.03;343600;28;1201;-77
2022/09/24 00:06:14;;;;;;;;;;;;;;;12.36;64.96;99920.00;347551;28;1180;-77
2022/09/24 00:06:25;;;;;;;;;;;;;;;12.35;65.12;99915.69;350360;28;834;-77
2022/09/24 00:06:44;;;;;;;;;;;;;;;12.33;65.26;99911.34;347844;28;1350;-77
2022/09/24 00:06:54;;;;;;;;;;;;;;;12.35;65.05;99915.69;344921;28;1433;-77
2022/09/24 00:07:05;;;;;;;;;;;;;;;12.33;65.19;99919.22;342439;28;1190;-77
2022/09/24 00:07:15;;;;;;;;;;;;;;;12.33;65.14;99921.00;343668;28;927;-77
2022/09/24 00:07:25;;;;;;;;;;;;;;;12.30;65.31;99916.72;342202;28;1294;-77
2022/09/24 00:07:35;;;;;;;;;;;;;;;12.30;65.51;99921.97;342141;28;1401;-77
2022/09/24 00:07:46;;;;;;;;;;;;;;;12.27;65.29;99916.88;341165;29;1206;-77
2022/09/24 00:07:56;;;;;;;;;;;;;;;12.27;65.28;99918.63;340900;28;1244;-77
2022/09/24 00:08:07;;;;;;;;;;;;;;;12.29;65.05;99914.19;341087;28;1455;-77
2022/09/24 00:08:17;;;;;;;;;;;;;;;12.28;65.43;99918.56;343668;28;1914;-77
2022/09/24 00:08:27;;;;;;;;;;;;;;;12.30;65.43;99918.50;347346;28;1461;-77
2022/09/24 00:08:37;;;;;;;;;;;;;;;12.29;65.10;99915.03;345231;28;1294;-77
2022/09/24 00:08:48;;;;;;;;;;;;;;;12.30;65.27;99915.88;346417;28;1390;-77
2022/09/24 00:08:59;;;;;;;;;;;;;;;12.29;65.34;99920.28;345223;28;941;-77
2022/09/24 00:09:10;;;;;;;;;;;;;;;12.27;65.18;99919.50;343640;28;1151;-77
2022/09/24 00:09:20;;;;;;;;;;;;;;;12.28;65.13;99918.56;343877;28;817;-77
2022/09/24 00:09:30;;;;;;;;;;;;;;;12.28;65.26;99913.31;342488;28;1246;-77
2022/09/24 00:09:41;;;;;;;;;;;;;;;12.28;65.25;99921.19;341866;28;1946;-77
2022/09/24 00:09:51;;;;;;;;;;;;;;;12.28;65.31;99915.09;335349;29;1946;-77
2022/09/24 00:10:01;;;;;;;;;;;;;;;12.27;65.44;99922.13;334765;29;897;-78
2022/09/24 00:10:11;;;;;;;;;;;;;;;12.27;65.32;99921.25;336155;29;1985;-78
2022/09/24 00:10:22;;;;;;;;;;;;;;;12.27;65.32;99913.38;335790;29;2128;-77
2022/09/24 00:10:37;;;;;;;;;;;;;;;12.27;65.59;99916.88;335869;29;1141;-77
2022/09/24 00:10:47;;;;;;;;;;;;;;;12.27;65.48;99916.88;335857;29;1277;-78
2022/09/24 00:11:00;;;;;;;;;;;;;;;12.27;65.57;99922.13;336883;29;946;-78
2022/09/24 00:11:11;;;;;;;;;;;;;;;12.26;65.50;99920.41;334429;29;1313;-78
2022/09/24 00:11:22;;;;;;;;;;;;;;;12.25;65.54;99918.69;334483;29;1839;-78
2022/09/24 00:11:32;;;;;;;;;;;;;;;12.27;65.40;99921.25;332149;29;1384;-78
2022/09/24 00:11:44;;;;;;;;;;;;;;;12.27;65.58;99916.88;327763;29;2083;-78
2022/09/24 00:11:54;;;;;;;;;;;;;;;12.29;65.47;99920.28;323842;30;2486;-78
2022/09/24 00:12:04;;;;;;;;;;;;;;;12.30;65.40;99915.88;323617;30;1384;-78
2022/09/24 00:12:15;;;;;;;;;;;;;;;12.29;65.59;99915.03;323079;30;2369;-78
2022/09/24 00:12:26;;;;;;;;;;;;;;;12.31;65.43;99918.44;325786;29;2751;-77
2022/09/24 00:12:37;;;;;;;;;;;;;;;12.29;65.46;99920.28;329627;29;2583;-77
2022/09/24 00:12:47;;;;;;;;;;;;;;;12.31;65.19;99917.59;325557;30;3576;-77
2022/09/24 00:12:57;;;;;;;;;;;;;;;12.31;65.19;99912.34;326245;30;3247;-78
2022/09/24 00:13:08;;;;;;;;;;;;;;;12.31;65.44;99912.34;325474;30;3395;-77
2022/09/24 00:13:18;;;;;;;;;;;;;;;12.29;65.40;99920.28;322567;30;1832;-78
2022/09/24 00:13:28;;;;;;;;;;;;;;;12.29;65.39;99920.28;320167;30;3314;-78
2022/09/24 00:13:39;;;;;;;;;;;;;;;12.29;65.13;99917.66;318982;30;2672;-78
2022/09/24 00:13:50;;;;;;;;;;;;;;;12.28;65.24;99915.09;320071;30;845;-78
2022/09/24 00:14:00;;;;;;;;;;;;;;;12.28;65.35;99913.31;317014;31;2922;-78
2022/09/24 00:14:10;;;;;;;;;;;;;;;12.28;65.11;99915.09;315244;30;3144;-78
2022/09/24 00:14:20;;;;;;;;;;;;;;;12.26;65.03;99917.78;313556;31;3301;-77
2022/09/24 00:14:31;;;;;;;;;;;;;;;12.26;65.12;99919.56;309882;31;1241;-77
2022/09/24 00:14:41;;;;;;;;;;;;;;;12.25;65.34;99913.44;310516;31;3529;-77
2022/09/24 00:14:51;;;;;;;;;;;;;;;12.23;65.49;99919.69;310894;31;3377;-77
2022/09/24 00:15:02;;;;;;;;;;;;;;;12.22;65.29;99917.97;312036;31;1295;-77
2022/09/24 00:15:12;;;;;;;;;;;;;;;12.22;65.48;99917.97;309916;31;2506;-78
2022/09/24 00:15:22;;;;;;;;;;;;;;;12.21;65.50;99911.03;309142;31;2342;-78
2022/09/24 00:15:36;;;;;;;;;;;;;;;12.21;65.56;99909.25;310598;31;1460;-78
2022/09/24 00:15:47;;;;;;;;;;;;;;;12.19;65.54;99911.09;306542;32;1395;-77
2022/09/24 00:16:00;;;;;;;;;;;;;;;12.18;65.63;99916.41;307309;32;3499;-77
2022/09/24 00:16:11;;;;;;;;;;;;;;;12.17;65.39;99915.56;303500;32;4137;-77
2022/09/24 00:16:21;;;;;;;;;;;;;;;12.17;65.33;99912.94;301712;32;4396;-77
2022/09/24 00:16:32;;;;;;;;;;;;;;;12.16;65.38;99911.22;304514;32;919;-77
2022/09/24 00:16:43;;;;;;;;;;;;;;;12.16;65.46;99919.09;299455;32;4587;-77
2022/09/24 00:16:53;;;;;;;;;;;;;;;12.17;65.50;99909.44;298180;32;3870;-77
2022/09/24 00:17:03;;;;;;;;;;;;;;;12.17;65.57;99912.94;298338;33;1232;-77
2022/09/24 00:17:14;;;;;;;;;;;;;;;12.18;65.50;99906.75;297350;32;4474;-77
2022/09/24 00:17:24;;;;;;;;;;;;;;;12.20;65.37;99906.69;297430;33;3496;-77
2022/09/24 00:17:34;;;;;;;;;;;;;;;12.20;65.38;99915.41;298222;33;1199;-77
2022/09/24 00:17:46;;;;;;;;;;;;;;;12.21;65.56;99917.13;292128;33;3537;-77
2022/09/24 00:17:56;;;;;;;;;;;;;;;12.22;65.54;99913.59;295035;33;4550;-77
2022/09/24 00:18:07;;;;;;;;;;;;;;;12.24;65.68;99906.50;295420;33;5559;-77
2022/09/24 00:18:17;;;;;;;;;;;;;;;12.25;65.80;99912.59;296172;33;1328;-77
2022/09/24 00:18:28;;;;;;;;;;;;;;;12.25;65.67;99908.19;292550;33;6963;-77
2022/09/24 00:18:38;;;;;;;;;;;;;;;12.29;65.48;99911.56;292729;33;5671;-77
2022/09/24 00:18:48;;;;;;;;;;;;;;;12.30;65.55;99910.63;296321;33;1252;-77
2022/09/24 00:18:59;;;;;;;;;;;;;;;12.30;65.25;99911.50;293549;33;6653;-77
2022/09/24 00:19:10;;;;;;;;;;;;;;;12.28;65.25;99913.31;290665;33;5507;-77
2022/09/24 00:19:20;;;;;;;;;;;;;;;12.29;64.91;99914.19;290375;34;1289;-79
2022/09/24 00:19:30;;;;;;;;;;;;;;;12.25;65.18;99908.19;290658;33;5572;-79
2022/09/24 00:19:40;;;;;;;;;;;;;;;12.24;65.12;99917.00;292936;33;4928;-77
2022/09/24 00:19:51;;;;;;;;;;;;;;;12.22;65.01;99913.59;292133;33;5267;-77
2022/09/24 00:20:01;;;;;;;;;;;;;;;12.19;64.99;99905.84;289910;34;1883;-77
2022/09/24 00:20:11;;;;;;;;;;;;;;;12.16;65.35;99908.59;290856;33;6964;-77
2022/09/24 00:20:21;;;;;;;;;;;;;;;12.15;65.26;99909.50;290484;33;7784;-77
2022/09/24 00:20:32;;;;;;;;;;;;;;;12.14;65.56;99905.19;291466;34;1272;-77
2022/09/24 00:20:42;;;;;;;;;;;;;;;12.14;65.35;99915.69;292075;33;10088;-78
2022/09/24 00:20:52;;;;;;;;;;;;;;;12.15;65.24;99911.28;289705;33;8033;-77
2022/09/24 00:21:15;;;;;;;;;;;;;;;12.11;64.94;99913.22;287579;34;1347;-77
2022/09/24 00:21:26;;;;;;;;;;;;;;;12.09;65.33;99907.19;281447;34;6732;-78
2022/09/24 00:23:18;;;;;;;;;;;;;;;12.19;65.14;99905.00;2495712;27;19933;-77
2022/09/24 00:23:29;;;;;;;;;;;;;;;12.17;64.66;99901.56;353338;28;1130;-77
2022/09/24 00:23:39;;;;;;;;;;;;;;;12.17;64.50;99907.69;353544;28;792;-77
2022/09/24 00:23:51;;;;;;;;;;;;;;;12.15;64.67;99901.63;353432;28;1235;-77
2022/09/24 00:24:02;;;;;;;;;;;;;;;12.16;64.54;99903.34;350694;28;1273;-77
2022/09/24 00:26:48;;;;;;;;;;;;;;;12.11;64.63;99905.34;349312;28;848;-78
2022/09/24 00:26:58;;;;;;;;;;;;;;;12.09;64.78;99909.81;348504;28;1247;-78
2022/09/24 00:27:09;;;;;;;;;;;;;;;12.07;64.95;99903.75;347949;28;1337;-78
2022/09/24 00:27:19;;;;;;;;;;;;;;;12.08;64.79;99907.25;347867;28;1356;-78
2022/09/24 00:27:30;;;;;;;;;;;;;;;12.06;64.94;99899.44;347872;28;879;-78
2022/09/24 00:27:40;;;;;;;;;;;;;;;12.06;65.22;99899.44;345496;28;1371;-78
2022/09/24 00:27:50;;;;;;;;;;;;;;;12.06;65.24;99911.69;346491;28;1251;-77
2022/09/24 00:28:00;;;;;;;;;;;;;;;12.05;65.18;99900.34;346452;28;1904;-77
2022/09/24 00:28:11;;;;;;;;;;;;;;;12.06;65.27;99901.22;347863;28;1273;-77
2022/09/24 00:28:22;;;;;;;;;;;;;;;12.06;65.66;99907.31;347805;28;1450;-77
2022/09/24 00:28:32;;;;;;;;;;;;;;;12.07;65.47;99903.75;349328;28;1309;-77
2022/09/24 00:28:42;;;;;;;;;;;;;;;12.08;65.34;99899.38;349130;28;932;-77
2022/09/24 00:28:52;;;;;;;;;;;;;;;12.07;65.06;99897.66;347774;28;801;-78
2022/09/24 00:29:03;;;;;;;;;;;;;;;12.07;65.16;99908.16;345107;28;1190;-77
2022/09/24 00:29:15;;;;;;;;;;;;;;;12.08;65.11;99902.84;344354;28;1318;-76
2022/09/24 00:29:25;;;;;;;;;;;;;;;12.07;65.22;99898.53;344788;28;1212;-77
2022/09/24 00:29:35;;;;;;;;;;;;;;;12.08;65.32;99902.00;346509;28;825;-77
2022/09/24 00:29:45;;;;;;;;;;;;;;;12.06;65.16;99896.81;346643;28;1064;-78
2022/09/24 00:29:56;;;;;;;;;;;;;;;12.07;65.13;99911.63;346956;28;1114;-78
2022/09/24 00:30:06;;;;;;;;;;;;;;;12.06;65.18;99902.06;344124;28;2068;-77
2022/09/24 00:30:16;;;;;;;;;;;;;;;12.07;65.23;99903.75;345644;28;1810;-76
2022/09/24 00:30:27;;;;;;;;;;;;;;;12.07;65.25;99901.13;345112;28;884;-76
2022/09/24 00:30:37;;;;;;;;;;;;;;;12.08;65.39;99905.47;345138;28;789;-76
2022/09/24 00:30:47;;;;;;;;;;;;;;;12.07;65.07;99902.91;346584;28;818;-76
2022/09/24 00:30:58;;;;;;;;;;;;;;;12.08;65.03;99900.22;344370;28;1070;-76
2022/09/24 00:31:08;;;;;;;;;;;;;;;12.08;65.05;99905.47;342610;28;2869;-76
2022/09/24 00:31:19;;;;;;;;;;;;;;;12.09;65.06;99907.19;341833;28;2507;-78
2022/09/24 00:31:29;;;;;;;;;;;;;;;12.07;65.24;99901.13;341235;28;1261;-78
2022/09/24 00:31:39;;;;;;;;;;;;;;;12.06;65.25;99907.31;340689;28;1911;-78
2022/09/24 00:31:50;;;;;;;;;;;;;;;12.05;65.35;99902.97;338554;29;1334;-79
2022/09/24 00:32:00;;;;;;;;;;;;;;;12.06;65.37;99902.06;338433;29;1537;-79
2022/09/24 00:32:12;;;;;;;;;;;;;;;12.05;65.40;99899.50;337038;29;1306;-77
2022/09/24 00:32:25;;;;;;;;;;;;;;;12.03;65.45;99903.97;337272;29;834;-78
2022/09/24 00:32:36;;;;;;;;;;;;;;;12.01;65.47;99896.16;337231;29;1324;-78
2022/09/24 00:32:46;;;;;;;;;;;;;;;12.00;65.48;99897.06;338469;29;928;-77
2022/09/24 00:32:56;;;;;;;;;;;;;;;11.99;65.43;99900.59;340148;28;1197;-77
2022/09/24 00:33:06;;;;;;;;;;;;;;;11.96;65.69;99895.50;339850;29;794;-78
2022/09/24 00:33:16;;;;;;;;;;;;;;;11.96;65.71;99905.97;338164;29;1413;-77
2022/09/24 00:33:27;;;;;;;;;;;;;;;11.95;65.71;99904.28;337369;29;1925;-77
2022/09/24 00:33:37;;;;;;;;;;;;;;;11.92;66.17;99902.63;335977;29;822;-76
2022/09/24 00:33:51;;;;;;;;;;;;;;;11.91;65.85;99902.69;333659;29;1850;-76
2022/09/24 00:34:01;;;;;;;;;;;;;;;11.88;65.87;99897.56;331604;29;1978;-76
2022/09/24 00:34:11;;;;;;;;;;;;;;;11.88;65.86;99908.06;333129;29;1922;-76
2022/09/24 00:34:21;;;;;;;;;;;;;;;11.87;66.20;99901.97;333234;29;1368;-77
2022/09/24 00:34:32;;;;;;;;;;;;;;;11.88;66.29;99902.81;333228;29;1554;-76
2022/09/24 00:34:42;;;;;;;;;;;;;;;11.89;66.24;99899.28;332682;29;870;-76
2022/09/24 00:34:53;;;;;;;;;;;;;;;11.91;66.16;99907.94;332154;29;934;-76
2022/09/24 00:35:03;;;;;;;;;;;;;;;11.91;66.27;99902.69;330776;29;1451;-77
2022/09/24 00:35:13;;;;;;;;;;;;;;;11.89;66.45;99904.53;330943;29;1664;-78
2022/09/24 00:35:24;;;;;;;;;;;;;;;11.89;66.22;99905.38;330461;29;2054;-78
2022/09/24 00:35:35;;;;;;;;;;;;;;;11.89;66.27;99900.13;332101;29;854;-78
2022/09/24 00:35:45;;;;;;;;;;;;;;;11.90;66.38;99906.22;330196;29;2325;-79
2022/09/24 00:36:00;;;;;;;;;;;;;;;11.88;66.54;99902.81;326571;30;2566;-78
2022/09/24 00:36:13;;;;;;;;;;;;;;;11.89;66.37;99901.91;327618;29;2688;-78
2022/09/24 00:36:23;;;;;;;;;;;;;;;11.89;66.16;99896.66;329413;30;2608;-78
2022/09/24 00:36:34;;;;;;;;;;;;;;;11.88;66.40;99903.66;325932;30;1269;-78
2022/09/24 00:36:45;;;;;;;;;;;;;;;11.88;66.33;99894.94;326100;30;1903;-77
2022/09/24 00:36:55;;;;;;;;;;;;;;;11.89;66.21;99899.28;325952;30;1357;-77
2022/09/24 00:37:06;;;;;;;;;;;;;;;11.91;66.22;99902.69;325871;30;1361;-77
2022/09/24 00:37:18;;;;;;;;;;;;;;;11.92;66.15;99905.25;321961;30;1909;-77
2022/09/24 00:37:28;;;;;;;;;;;;;;;11.92;66.20;99909.66;322754;30;2356;-77
2022/09/24 00:37:38;;;;;;;;;;;;;;;11.90;66.23;99899.22;321849;30;2738;-77
2022/09/24 00:37:48;;;;;;;;;;;;;;;11.91;66.39;99900.06;320045;30;1493;-77
2022/09/24 00:37:59;;;;;;;;;;;;;;;11.92;66.34;99904.41;319772;30;2999;-77
2022/09/24 00:38:09;;;;;;;;;;;;;;;11.91;66.13;99894.81;319877;30;3182;-77
2022/09/24 00:38:19;;;;;;;;;;;;;;;11.92;66.17;99901.78;322421;30;734;-77
2022/09/24 00:38:30;;;;;;;;;;;;;;;11.91;66.23;99898.31;323803;30;3298;-77
2022/09/24 00:38:40;;;;;;;;;;;;;;;11.91;66.31;99903.53;319241;30;3237;-77
2022/09/24 00:38:51;;;;;;;;;;;;;;;11.91;66.22;99902.69;316550;31;1263;-77
2022/09/24 00:39:01;;;;;;;;;;;;;;;11.93;66.10;99903.47;321755;30;2383;-77
2022/09/24 00:39:12;;;;;;;;;;;;;;;11.94;66.31;99902.56;321256;30;2499;-77
2022/09/24 00:39:22;;;;;;;;;;;;;;;11.95;66.13;99893.78;320045;30;849;-77
2022/09/24 00:39:32;;;;;;;;;;;;;;;11.93;66.27;99901.72;319318;30;2779;-77
2022/09/24 00:39:42;;;;;;;;;;;;;;;11.93;66.38;99900.88;315120;31;3295;-78
2022/09/24 00:39:53;;;;;;;;;;;;;;;11.95;66.06;99896.41;312567;31;4175;-78
2022/09/24 00:40:03;;;;;;;;;;;;;;;11.95;66.13;99901.66;315779;31;2172;-78
2022/09/24 00:40:14;;;;;;;;;;;;;;;11.94;66.07;99908.66;314616;31;3975;-78
2022/09/24 00:40:28;;;;;;;;;;;;;;;11.93;66.40;99903.47;311076;31;5667;-77
2022/09/24 00:40:38;;;;;;;;;;;;;;;11.92;66.17;99899.16;310034;31;4131;-78
2022/09/24 00:40:49;;;;;;;;;;;;;;;11.89;66.44;99899.28;311513;31;2088;-78
2022/09/24 00:40:59;;;;;;;;;;;;;;;11.91;66.23;99900.06;309200;31;4719;-78
2022/09/24 00:41:09;;;;;;;;;;;;;;;11.90;66.25;99901.00;308160;31;3276;-78
2022/09/24 00:41:20;;;;;;;;;;;;;;;11.88;66.27;99902.81;307691;32;1354;-78
2022/09/24 00:41:33;;;;;;;;;;;;;;;11.87;66.19;99903.75;303140;32;3641;-78
2022/09/24 00:41:45;;;;;;;;;;;;;;;11.85;66.41;99897.69;304135;32;4201;-78
2022/09/24 00:41:56;;;;;;;;;;;;;;;11.78;66.18;99901.50;305681;32;4966;-78
2022/09/24 00:42:07;;;;;;;;;;;;;;;11.78;66.28;99902.34;305068;32;1914;-78
2022/09/24 00:42:18;;;;;;;;;;;;;;;11.76;66.39;99900.66;303352;32;7137;-78
2022/09/24 00:42:30;;;;;;;;;;;;;;;11.75;66.58;99897.19;302098;32;6855;-78
2022/09/24 00:42:41;;;;;;;;;;;;;;;11.75;66.80;99896.34;299349;32;7051;-78
2022/09/24 00:42:51;;;;;;;;;;;;;;;11.76;66.67;99895.41;300560;32;1004;-78
2022/09/24 00:43:01;;;;;;;;;;;;;;;11.76;66.66;99903.28;298171;32;5500;-78
2022/09/24 00:43:22;;;;;;;;;;;;;;;11.78;66.69;99893.63;297084;33;6075;-78
2022/09/24 00:43:34;;;;;;;;;;;;;;;11.79;66.95;99897.94;295055;33;4578;-78
2022/09/24 00:43:45;;;;;;;;;;;;;;;11.77;66.83;99902.41;296262;33;5520;-78
2022/09/24 00:43:55;;;;;;;;;;;;;;;11.78;66.85;99897.09;295864;33;6765;-78
2022/09/24 00:44:34;;;;;;;;;;;;;;;11.77;66.70;99902.41;293354;33;1304;-78
2022/09/24 00:46:24;;;;;;;;;;;;;;;11.78;66.73;99891.00;2504907;27;19933;-77
2022/09/24 00:46:38;;;;;;;;;;;;;;;11.77;66.74;99889.28;355984;27;838;-77
2022/09/24 00:46:48;;;;;;;;;;;;;;;11.77;66.74;99894.53;354992;27;859;-77
2022/09/24 00:46:59;;;;;;;;;;;;;;;11.79;66.91;99895.31;354834;27;1296;-77
2022/09/24 00:47:29;;;;;;;;;;;;;;;11.77;66.71;99894.53;351935;28;1388;-77
2022/09/24 00:47:40;;;;;;;;;;;;;;;11.80;66.82;99899.66;343548;28;1002;-78
2022/09/24 00:47:50;;;;;;;;;;;;;;;11.78;66.74;99898.88;341127;28;1278;-78
2022/09/24 00:48:00;;;;;;;;;;;;;;;11.78;66.75;99896.25;345815;28;1227;-78
2022/09/24 00:48:10;;;;;;;;;;;;;;;11.79;66.62;99893.56;346135;28;1837;-78
2022/09/24 00:48:20;;;;;;;;;;;;;;;11.80;66.74;99894.41;346556;28;778;-78
2022/09/24 00:48:33;;;;;;;;;;;;;;;11.80;66.76;99894.41;346534;28;955;-78
2022/09/24 00:48:43;;;;;;;;;;;;;;;11.80;66.76;99894.41;346460;28;871;-78
2022/09/24 00:48:56;;;;;;;;;;;;;;;11.80;66.62;99890.03;347849;28;1207;-78
2022/09/24 00:49:11;;;;;;;;;;;;;;;11.78;66.81;99893.63;347909;28;963;-78
2022/09/24 00:49:21;;;;;;;;;;;;;;;11.79;66.71;99896.19;347738;28;905;-78
2022/09/24 00:49:31;;;;;;;;;;;;;;;11.78;66.34;99891.84;345665;28;3436;-78
2022/09/24 00:49:41;;;;;;;;;;;;;;;11.79;66.85;99904.03;345622;28;2999;-78
2022/09/24 00:49:52;;;;;;;;;;;;;;;11.78;66.42;99893.63;349682;28;833;-77
2022/09/24 00:50:15;;;;;;;;;;;;;;;11.79;66.49;99892.72;347746;28;1376;-77
2022/09/24 00:50:30;;;;;;;;;;;;;;;11.78;66.65;99896.25;349027;28;959;-77
2022/09/24 00:50:40;;;;;;;;;;;;;;;11.76;66.80;99892.81;347860;28;909;-77
2022/09/24 00:50:50;;;;;;;;;;;;;;;11.76;66.72;99903.28;348579;28;1306;-77
2022/09/24 00:51:01;;;;;;;;;;;;;;;11.76;66.78;99893.66;347936;28;818;-77
2022/09/24 00:51:13;;;;;;;;;;;;;;;11.78;66.90;99896.25;343700;28;1214;-77
2022/09/24 00:51:23;;;;;;;;;;;;;;;11.77;66.66;99894.53;345178;28;1381;-77
2022/09/24 00:51:33;;;;;;;;;;;;;;;11.77;66.83;99894.53;346504;28;927;-77
2022/09/24 00:51:44;;;;;;;;;;;;;;;11.78;67.00;99896.25;345269;28;1234;-77
2022/09/24 00:51:54;;;;;;;;;;;;;;;11.79;66.80;99897.94;345135;28;877;-77
2022/09/24 00:52:05;;;;;;;;;;;;;;;11.78;66.65;99897.09;344900;28;1103;-77
2022/09/24 00:52:15;;;;;;;;;;;;;;;11.80;66.97;99897.03;345072;28;983;-77
2022/09/24 00:52:25;;;;;;;;;;;;;;;11.81;66.86;99894.34;344945;28;1297;-77
2022/09/24 00:52:37;;;;;;;;;;;;;;;11.80;66.86;99891.78;344302;28;1111;-77
2022/09/24 00:52:49;;;;;;;;;;;;;;;11.79;66.92;99897.94;347739;28;1363;-77
2022/09/24 00:53:03;;;;;;;;;;;;;;;11.79;66.92;99896.19;349292;28;844;-77
2022/09/24 00:53:15;;;;;;;;;;;;;;;11.80;66.89;99899.66;347743;28;1238;-77
2022/09/24 00:53:30;;;;;;;;;;;;;;;11.79;66.98;99893.56;346576;28;864;-77
2022/09/24 00:53:40;;;;;;;;;;;;;;;11.81;67.00;99896.13;345075;28;1102;-77
2022/09/24 00:53:52;;;;;;;;;;;;;;;11.79;67.24;99897.94;341686;28;1080;-77
2022/09/24 00:54:08;;;;;;;;;;;;;;;11.78;67.06;99896.25;339913;29;1452;-77
2022/09/24 00:54:20;;;;;;;;;;;;;;;11.79;67.01;99892.72;339540;29;1353;-78
2022/09/24 00:54:31;;;;;;;;;;;;;;;11.77;67.59;99892.78;337307;29;953;-78
2022/09/24 00:54:43;;;;;;;;;;;;;;;11.74;67.24;99890.25;336605;29;1418;-78
2022/09/24 00:54:53;;;;;;;;;;;;;;;11.74;67.12;99889.38;340279;28;1637;-77
2022/09/24 00:55:03;;;;;;;;;;;;;;;11.73;67.07;99892.91;340442;29;1926;-77
2022/09/24 00:55:13;;;;;;;;;;;;;;;11.72;67.15;99896.47;338949;28;1436;-77
2022/09/24 00:55:24;;;;;;;;;;;;;;;11.69;67.01;99888.75;340676;28;1211;-77
2022/09/24 00:55:35;;;;;;;;;;;;;;;11.68;67.19;99894.91;341092;29;772;-77
2022/09/24 00:55:46;;;;;;;;;;;;;;;11.68;67.14;99892.28;341242;29;873;-77
2022/09/24 00:55:56;;;;;;;;;;;;;;;11.68;67.35;99892.28;339576;28;1249;-77
2022/09/24 00:56:07;;;;;;;;;;;;;;;11.70;67.16;99898.31;339400;28;1335;-77
2022/09/24 00:56:18;;;;;;;;;;;;;;;11.72;67.17;99896.47;338361;29;1302;-77
2022/09/24 00:56:30;;;;;;;;;;;;;;;11.72;67.08;99896.47;335744;29;1908;-77
2022/09/24 00:56:40;;;;;;;;;;;;;;;11.73;67.19;99896.41;336432;29;2093;-77
2022/09/24 00:56:50;;;;;;;;;;;;;;;11.73;67.41;99887.69;334086;29;1989;-77
2022/09/24 00:57:00;;;;;;;;;;;;;;;11.75;67.24;99896.34;332050;29;1410;-77
2022/09/24 00:57:10;;;;;;;;;;;;;;;11.76;67.18;99887.56;332610;29;2072;-77
2022/09/24 00:57:21;;;;;;;;;;;;;;;11.77;66.90;99891.91;330887;29;1690;-77
2022/09/24 00:57:31;;;;;;;;;;;;;;;11.75;67.02;99896.34;330795;29;1355;-77
2022/09/24 00:57:42;;;;;;;;;;;;;;;11.74;66.89;99890.25;332931;29;852;-78
2022/09/24 00:57:55;;;;;;;;;;;;;;;11.73;67.02;99898.16;332639;29;1373;-78
2022/09/24 00:58:06;;;;;;;;;;;;;;;11.73;67.05;99893.78;332027;29;1679;-77
2022/09/24 00:58:16;;;;;;;;;;;;;;;11.74;66.87;99889.38;331677;29;1546;-77
2022/09/24 00:58:27;;;;;;;;;;;;;;;11.74;67.07;99890.25;331797;29;2086;-77
2022/09/24 00:58:37;;;;;;;;;;;;;;;11.75;67.00;99893.72;327484;30;2495;-77
2022/09/24 00:58:50;;;;;;;;;;;;;;;11.69;66.94;99894.00;325990;30;2761;-77
2022/09/24 00:59:01;;;;;;;;;;;;;;;11.69;67.24;99896.63;328081;30;4600;-77
2022/09/24 00:59:12;;;;;;;;;;;;;;;11.69;67.18;99892.22;327044;30;2317;-77
2022/09/24 00:59:23;;;;;;;;;;;;;;;11.68;67.13;99889.66;324551;30;3049;-77
2022/09/24 00:59:33;;;;;;;;;;;;;;;11.68;66.91;99889.66;324263;30;781;-77
2022/09/24 00:59:43;;;;;;;;;;;;;;;11.68;67.05;99889.66;326635;30;1704;-77
2022/09/24 00:59:54;;;;;;;;;;;;;;;11.68;67.08;99889.66;325575;30;1332;-77
2022/09/24 01:00:06;;;;;;;;;;;;;;;11.68;67.14;99890.53;324007;30;1878;-77
2022/09/24 01:00:18;;;;;;;;;;;;;;;11.68;67.23;99892.28;321583;30;1658;-77
2022/09/24 01:00:28;;;;;;;;;;;;;;;11.66;67.23;99890.59;321352;30;2463;-77
2022/09/24 01:00:39;;;;;;;;;;;;;;;11.68;67.35;99889.66;318796;30;2974;-77
2022/09/24 01:00:50;;;;;;;;;;;;;;;11.66;67.21;99887.09;317100;30;3293;-77
2022/09/24 01:01:03;;;;;;;;;;;;;;;11.65;67.15;99893.25;316505;31;1217;-77
2022/09/24 01:01:13;;;;;;;;;;;;;;;11.68;67.28;99894.91;315765;31;3407;-77
2022/09/24 01:01:23;;;;;;;;;;;;;;;11.65;67.16;99886.25;314073;31;3061;-77
2022/09/24 01:01:34;;;;;;;;;;;;;;;11.64;67.26;99887.16;313174;31;1340;-77
2022/09/24 01:01:44;;;;;;;;;;;;;;;11.66;67.34;99887.97;314072;31;1889;-77
2022/09/24 01:01:56;;;;;;;;;;;;;;;11.65;67.34;99893.25;312842;31;2441;-77
2022/09/24 01:02:07;;;;;;;;;;;;;;;11.64;67.47;99891.56;309831;31;2287;-77
2022/09/24 01:02:17;;;;;;;;;;;;;;;11.64;67.27;99888.94;308841;31;1786;-77
2022/09/24 01:02:27;;;;;;;;;;;;;;;11.61;67.38;99884.66;310065;31;2875;-77
2022/09/24 01:02:38;;;;;;;;;;;;;;;11.63;67.50;99890.69;307000;31;3325;-77
2022/09/24 01:02:49;;;;;;;;;;;;;;;11.62;67.36;99891.63;306759;32;879;-77
2022/09/24 01:03:01;;;;;;;;;;;;;;;11.61;67.42;99889.91;305586;32;955;-77
2022/09/24 01:03:12;;;;;;;;;;;;;;;11.61;67.55;99889.06;302869;32;4336;-77
2022/09/24 01:03:23;;;;;;;;;;;;;;;11.59;67.52;99888.28;303837;32;4918;-77
2022/09/24 01:03:38;;;;;;;;;;;;;;;11.60;67.52;99885.59;306630;32;907;-77
2022/09/24 01:03:49;;;;;;;;;;;;;;;11.60;67.30;99885.59;301851;32;784;-77
2022/09/24 01:03:59;;;;;;;;;;;;;;;11.60;67.47;99890.81;299328;33;1464;-77
2022/09/24 01:04:09;;;;;;;;;;;;;;;11.60;67.68;99888.22;294817;33;3323;-77
2022/09/24 01:04:20;;;;;;;;;;;;;;;11.62;67.73;99891.63;292763;33;3024;-77
2022/09/24 01:04:30;;;;;;;;;;;;;;;11.64;67.48;99894.19;295282;33;1232;-77
2022/09/24 01:04:40;;;;;;;;;;;;;;;11.61;67.74;99892.53;293120;33;3981;-77
2022/09/24 01:04:51;;;;;;;;;;;;;;;11.61;67.64;99889.06;293029;33;4971;-77
2022/09/24 01:05:01;;;;;;;;;;;;;;;11.60;67.66;99893.44;296272;33;1365;-77
2022/09/24 01:05:12;;;;;;;;;;;;;;;11.61;67.60;99879.44;291392;33;6054;-77
2022/09/24 01:05:22;;;;;;;;;;;;;;;11.60;67.65;99890.81;288478;34;6528;-77
2022/09/24 01:05:33;;;;;;;;;;;;;;;11.60;67.55;99893.44;287527;34;1673;-77